createdAt,value
2022-09-23T00:00:22.999Z,87.41
2022-09-23T00:01:23.037Z,87.41
2022-09-23T00:02:23.066Z,87.51
2022-09-23T00:03:22.965Z,87.51
2022-09-23T00:04:22.964Z,87.51
2022-09-23T00:05:22.961Z,87.41
2022-09-23T00:06:22.931Z,87.20
2022-09-23T00:07:22.953Z,87.30
2022-09-23T00:08:22.917Z,87.30
2022-09-23T00:09:22.897Z,87.30
2022-09-23T00:10:22.913Z,87.30
2022-09-23T00:11:22.874Z,87.30
2022-09-23T00:12:22.874Z,87.20
2022-09-23T00:13:22.903Z,87.20
2022-09-23T00:14:22.845Z,87.10
2022-09-23T00:15:22.920Z,87.10
2022-09-23T00:16:22.883Z,87.10
2022-09-23T00:17:22.804Z,86.90
2022-09-23T00:18:22.817Z,86.99
2022-09-23T00:19:22.817Z,87.10
2022-09-23T00:20:22.774Z,87.30
2022-09-23T00:21:22.765Z,87.30
2022-09-23T00:22:23.005Z,86.99
2022-09-23T00:23:22.826Z,86.99
2022-09-23T00:24:22.767Z,86.99
2022-09-23T00:25:22.861Z,86.99
2022-09-23T00:26:22.702Z,86.99
2022-09-23T00:27:22.696Z,87.10
2022-09-23T00:28:22.747Z,87.10
2022-09-23T00:29:22.719Z,87.30
2022-09-23T00:30:22.790Z,87.30
2022-09-23T00:31:22.722Z,87.30
2022-09-23T00:32:22.845Z,87.51
2022-09-23T00:33:22.767Z,87.51
2022-09-23T00:34:22.640Z,87.55
2022-09-23T00:35:22.892Z,87.51
2022-09-23T00:36:22.652Z,87.45
2022-09-23T00:37:22.598Z,87.76
2022-09-23T00:38:22.561Z,87.76
2022-09-23T00:39:22.561Z,87.85
2022-09-23T00:40:22.632Z,87.96
2022-09-23T00:41:22.561Z,88.06
2022-09-23T00:42:22.529Z,88.06
2022-09-23T00:43:22.565Z,88.27
2022-09-23T00:44:22.532Z,88.27
2022-09-23T00:45:22.500Z,88.17
2022-09-23T00:46:22.502Z,87.96
2022-09-23T00:47:22.499Z,87.76
2022-09-23T00:48:22.509Z,87.65
2022-09-23T00:49:22.458Z,87.65
2022-09-23T00:50:22.439Z,87.76
2022-09-23T00:51:22.439Z,87.76
2022-09-23T00:52:22.423Z,87.85
2022-09-23T00:53:22.417Z,87.85
2022-09-23T00:54:22.446Z,87.85
2022-09-23T00:55:22.394Z,87.96
2022-09-23T00:56:22.452Z,88.06
2022-09-23T00:57:22.525Z,88.17
2022-09-23T00:58:22.513Z,88.17
2022-09-23T00:59:22.569Z,88.06
2022-09-23T01:00:22.515Z,88.06
2022-09-23T01:01:22.384Z,88.17
2022-09-23T01:02:22.359Z,88.06
2022-09-23T01:03:22.300Z,88.17
2022-09-23T01:04:22.274Z,88.27
2022-09-23T01:05:22.280Z,88.27
2022-09-23T01:06:22.296Z,88.27
2022-09-23T01:07:22.259Z,88.17
2022-09-23T01:08:22.241Z,88.27
2022-09-23T01:09:22.234Z,88.27
2022-09-23T01:10:22.213Z,88.12
2022-09-23T01:11:22.223Z,88.06
2022-09-23T01:12:22.219Z,88.02
2022-09-23T01:13:22.188Z,88.12
2022-09-23T01:14:22.178Z,87.82
2022-09-23T01:15:22.198Z,87.61
2022-09-23T01:16:22.214Z,87.61
2022-09-23T01:17:22.169Z,87.71
2022-09-23T01:18:22.129Z,87.51
2022-09-23T01:19:22.118Z,87.41
2022-09-23T01:20:22.115Z,87.51
2022-09-23T01:21:22.141Z,87.61
2022-09-23T01:22:22.071Z,87.51
2022-09-23T01:23:22.071Z,87.30
2022-09-23T01:24:22.059Z,87.41
2022-09-23T01:25:22.055Z,87.45
2022-09-23T01:26:22.045Z,87.55
2022-09-23T01:27:22.061Z,87.65
2022-09-23T01:28:22.009Z,87.55
2022-09-23T01:29:22.004Z,87.65
2022-09-23T01:30:21.982Z,87.85
2022-09-23T01:31:22.036Z,87.96
2022-09-23T01:32:21.967Z,87.85
2022-09-23T01:33:21.981Z,87.96
2022-09-23T01:34:21.944Z,88.17
2022-09-23T01:35:21.933Z,88.17
2022-09-23T01:36:21.943Z,88.17
2022-09-23T01:37:21.920Z,88.06
2022-09-23T01:38:21.956Z,88.06
2022-09-23T01:39:21.891Z,88.06
2022-09-23T01:40:21.983Z,88.06
2022-09-23T01:41:21.869Z,88.06
2022-09-23T01:42:21.846Z,87.96
2022-09-23T01:43:21.850Z,88.06
2022-09-23T01:44:21.896Z,88.27
2022-09-23T01:45:21.829Z,88.27
2022-09-23T01:46:21.804Z,88.37
2022-09-23T01:47:21.805Z,88.47
2022-09-23T01:48:21.852Z,88.68
2022-09-23T01:49:21.817Z,88.78
2022-09-23T01:50:21.792Z,88.57
2022-09-23T01:51:21.771Z,88.37
2022-09-23T01:52:21.746Z,88.37
2022-09-23T01:53:21.736Z,88.47
2022-09-23T01:54:21.746Z,88.47
2022-09-23T01:55:21.738Z,88.47
2022-09-23T01:56:21.697Z,88.68
2022-09-23T01:57:21.687Z,88.68
2022-09-23T01:58:21.712Z,88.68
2022-09-23T01:59:21.685Z,88.57
2022-09-23T02:00:21.680Z,88.57
2022-09-23T02:01:21.707Z,88.57
2022-09-23T02:02:21.720Z,88.37
2022-09-23T02:03:21.637Z,88.57
2022-09-23T02:04:21.618Z,88.78
2022-09-23T02:05:21.607Z,88.68
2022-09-23T02:06:21.641Z,88.72
2022-09-23T02:07:21.600Z,88.82
2022-09-23T02:08:21.572Z,88.92
2022-09-23T02:09:21.550Z,88.92
2022-09-23T02:10:21.561Z,88.92
2022-09-23T02:11:21.551Z,88.92
2022-09-23T02:12:21.541Z,89.03
2022-09-23T02:13:21.511Z,89.13
2022-09-23T02:14:21.518Z,89.13
2022-09-23T02:15:21.495Z,89.13
2022-09-23T02:16:21.579Z,89.13
2022-09-23T02:17:21.501Z,89.13
2022-09-23T02:18:21.454Z,89.03
2022-09-23T02:19:21.444Z,88.92
2022-09-23T02:20:21.436Z,89.03
2022-09-23T02:21:21.423Z,88.92
2022-09-23T02:22:21.451Z,88.82
2022-09-23T02:23:21.418Z,88.82
2022-09-23T02:24:21.400Z,88.62
2022-09-23T02:25:21.382Z,88.51
2022-09-23T02:26:21.367Z,88.51
2022-09-23T02:27:21.354Z,88.62
2022-09-23T02:28:21.413Z,88.72
2022-09-23T02:29:21.363Z,88.62
2022-09-23T02:30:21.322Z,88.62
2022-09-23T02:31:21.378Z,88.72
2022-09-23T02:32:21.354Z,88.62
2022-09-23T02:33:21.286Z,88.51
2022-09-23T02:34:21.296Z,88.62
2022-09-23T02:35:21.268Z,88.41
2022-09-23T02:36:21.247Z,88.31
2022-09-23T02:37:21.252Z,88.31
2022-09-23T02:38:21.258Z,88.21
2022-09-23T02:39:21.255Z,88.31
2022-09-23T02:40:21.258Z,88.21
2022-09-23T02:41:21.197Z,88.31
2022-09-23T02:42:21.198Z,88.41
2022-09-23T02:43:21.198Z,88.62
2022-09-23T02:44:21.178Z,88.62
2022-09-23T02:45:21.190Z,88.62
2022-09-23T02:46:21.232Z,88.62
2022-09-23T02:47:21.139Z,88.72
2022-09-23T02:48:21.144Z,88.92
2022-09-23T02:49:21.141Z,88.92
2022-09-23T02:50:21.090Z,89.03
2022-09-23T02:51:21.099Z,89.03
2022-09-23T02:52:21.068Z,89.03
2022-09-23T02:53:21.085Z,89.03
2022-09-23T02:54:21.101Z,89.03
2022-09-23T02:55:21.042Z,88.92
2022-09-23T02:56:21.034Z,88.82
2022-09-23T02:57:21.025Z,88.82
2022-09-23T02:58:21.014Z,88.82
2022-09-23T02:59:21.013Z,88.72
2022-09-23T03:00:21.049Z,88.72
2022-09-23T03:01:21.017Z,88.72
2022-09-23T03:02:21.054Z,88.72
2022-09-23T03:03:20.977Z,88.82
2022-09-23T03:04:20.948Z,88.82
2022-09-23T03:05:20.937Z,88.82
2022-09-23T03:06:21.035Z,88.62
2022-09-23T03:07:20.935Z,88.72
2022-09-23T03:08:20.940Z,89.03
2022-09-23T03:09:20.895Z,88.96
2022-09-23T03:10:20.870Z,89.07
2022-09-23T03:11:20.910Z,89.17
2022-09-23T03:12:20.884Z,89.17
2022-09-23T03:13:20.849Z,89.17
2022-09-23T03:14:20.837Z,89.17
2022-09-23T03:15:20.816Z,89.07
2022-09-23T03:16:20.877Z,89.07
2022-09-23T03:17:20.818Z,89.27
2022-09-23T03:18:20.794Z,89.27
2022-09-23T03:19:20.819Z,89.27
2022-09-23T03:20:20.793Z,89.27
2022-09-23T03:21:20.760Z,89.37
2022-09-23T03:22:20.742Z,89.27
2022-09-23T03:23:20.728Z,89.17
2022-09-23T03:24:20.757Z,89.27
2022-09-23T03:25:20.702Z,89.37
2022-09-23T03:26:20.699Z,89.37
2022-09-23T03:27:20.709Z,89.48
2022-09-23T03:28:20.691Z,89.62
2022-09-23T03:29:20.671Z,89.83
2022-09-23T03:30:20.662Z,89.93
2022-09-23T03:31:20.700Z,89.93
2022-09-23T03:32:20.643Z,90.03
2022-09-23T03:33:20.650Z,90.03
2022-09-23T03:34:20.611Z,90.03
2022-09-23T03:35:20.601Z,90.03
2022-09-23T03:36:20.592Z,89.93
2022-09-23T03:37:20.576Z,89.93
2022-09-23T03:38:20.562Z,89.93
2022-09-23T03:39:20.582Z,89.93
2022-09-23T03:40:20.628Z,90.03
2022-09-23T03:41:20.546Z,90.03
2022-09-23T03:42:20.523Z,89.93
2022-09-23T03:43:20.520Z,90.14
2022-09-23T03:44:20.504Z,90.24
2022-09-23T03:45:20.658Z,90.34
2022-09-23T03:46:20.514Z,90.44
2022-09-23T03:47:20.465Z,90.34
2022-09-23T03:48:20.456Z,90.38
2022-09-23T03:49:20.454Z,90.48
2022-09-23T03:50:20.465Z,90.59
2022-09-23T03:51:20.425Z,90.69
2022-09-23T03:52:20.473Z,90.59
2022-09-23T03:53:20.394Z,90.59
2022-09-23T03:54:20.388Z,90.59
2022-09-23T03:55:20.376Z,90.59
2022-09-23T03:56:20.385Z,90.59
2022-09-23T03:57:20.361Z,90.48
2022-09-23T03:58:20.376Z,90.48
2022-09-23T03:59:20.400Z,90.48
2022-09-23T04:00:20.342Z,90.48
2022-09-23T04:01:20.345Z,90.38
2022-09-23T04:02:21.914Z,90.28
2022-09-23T04:03:21.753Z,90.38
2022-09-23T04:04:20.313Z,90.38
2022-09-23T04:05:20.454Z,90.48
2022-09-23T04:06:20.268Z,90.38
2022-09-23T04:07:20.316Z,90.38
2022-09-23T04:08:20.244Z,90.59
2022-09-23T04:09:20.246Z,90.59
2022-09-23T04:10:20.275Z,90.80
2022-09-23T04:11:20.199Z,90.69
2022-09-23T04:12:20.645Z,90.59
2022-09-23T04:13:20.171Z,90.59
2022-09-23T04:14:20.199Z,90.59
2022-09-23T04:15:20.181Z,90.80
2022-09-23T04:16:20.189Z,90.80
2022-09-23T04:17:20.168Z,90.89
2022-09-23T04:18:20.282Z,91.14
2022-09-23T04:19:20.120Z,91.14
2022-09-23T04:20:20.135Z,91.25
2022-09-23T04:21:20.094Z,91.25
2022-09-23T04:22:20.091Z,91.35
2022-09-23T04:23:21.545Z,91.25
2022-09-23T04:24:20.068Z,91.25
2022-09-23T04:25:20.644Z,91.25
2022-09-23T04:26:20.050Z,91.04
2022-09-23T04:27:20.029Z,91.10
2022-09-23T04:28:21.028Z,91.10
2022-09-23T04:29:20.013Z,91.10
2022-09-23T04:30:20.810Z,91.10
2022-09-23T04:31:20.595Z,91.10
2022-09-23T04:32:19.976Z,91.10
2022-09-23T04:33:19.984Z,91.10
2022-09-23T04:34:19.958Z,91.14
2022-09-23T04:35:20.418Z,91.14
2022-09-23T04:36:19.998Z,91.35
2022-09-23T04:37:20.724Z,91.25
2022-09-23T04:38:19.921Z,91.25
2022-09-23T04:39:19.905Z,91.25
2022-09-23T04:40:19.910Z,91.35
2022-09-23T04:41:20.729Z,91.45
2022-09-23T04:42:19.931Z,91.45
2022-09-23T04:43:19.858Z,91.55
2022-09-23T04:44:19.846Z,91.55
2022-09-23T04:45:19.826Z,91.45
2022-09-23T04:46:19.928Z,91.35
2022-09-23T04:47:19.850Z,91.25
2022-09-23T04:48:21.250Z,91.25
2022-09-23T04:49:19.779Z,91.25
2022-09-23T04:50:19.816Z,91.25
2022-09-23T04:51:20.206Z,91.20
2022-09-23T04:52:19.770Z,91.10
2022-09-23T04:53:19.840Z,91.00
2022-09-23T04:54:20.212Z,91.10
2022-09-23T04:55:19.973Z,91.51
2022-09-23T04:56:19.756Z,91.57
2022-09-23T04:57:19.742Z,91.16
2022-09-23T04:58:21.162Z,90.80
2022-09-23T04:59:21.131Z,90.48
2022-09-23T05:00:21.149Z,90.28
2022-09-23T05:01:19.855Z,90.18
2022-09-23T05:02:19.957Z,90.08
2022-09-23T05:03:19.820Z,89.87
2022-09-23T05:04:19.891Z,89.66
2022-09-23T05:05:21.104Z,89.56
2022-09-23T05:06:19.629Z,89.56
2022-09-23T05:07:19.604Z,89.56
2022-09-23T05:08:19.592Z,89.56
2022-09-23T05:09:19.836Z,89.46
2022-09-23T05:10:19.552Z,89.46
2022-09-23T05:11:19.568Z,89.56
2022-09-23T05:12:19.574Z,89.56
2022-09-23T05:13:20.332Z,89.56
2022-09-23T05:14:19.564Z,89.56
2022-09-23T05:15:19.514Z,89.66
2022-09-23T05:16:19.559Z,89.76
2022-09-23T05:17:19.489Z,89.97
2022-09-23T05:18:20.899Z,90.18
2022-09-23T05:19:19.511Z,90.18
2022-09-23T05:20:19.454Z,90.08
2022-09-23T05:21:19.948Z,90.18
2022-09-23T05:22:19.418Z,90.28
2022-09-23T05:23:19.428Z,90.38
2022-09-23T05:24:19.413Z,90.48
2022-09-23T05:25:19.428Z,90.48
2022-09-23T05:26:19.387Z,90.38
2022-09-23T05:27:19.963Z,90.18
2022-09-23T05:28:19.439Z,90.28
2022-09-23T05:29:19.586Z,90.38
2022-09-23T05:30:19.566Z,90.48
2022-09-23T05:31:20.651Z,90.48
2022-09-23T05:32:19.317Z,90.48
2022-09-23T05:33:19.310Z,90.42
2022-09-23T05:34:19.291Z,90.48
2022-09-23T05:35:19.291Z,90.48
2022-09-23T05:36:19.409Z,90.48
2022-09-23T05:37:19.260Z,90.53
2022-09-23T05:38:19.266Z,90.53
2022-09-23T05:39:19.232Z,90.42
2022-09-23T05:40:19.501Z,90.53
2022-09-23T05:41:19.255Z,90.53
2022-09-23T05:42:19.200Z,90.53
2022-09-23T05:43:19.335Z,90.53
2022-09-23T05:44:19.181Z,90.63
2022-09-23T05:45:19.162Z,90.63
2022-09-23T05:46:19.215Z,90.63
2022-09-23T05:47:19.322Z,90.73
2022-09-23T05:48:19.275Z,90.73
2022-09-23T05:49:19.135Z,90.63
2022-09-23T05:50:19.126Z,90.63
2022-09-23T05:51:19.107Z,90.59
2022-09-23T05:52:19.117Z,90.69
2022-09-23T05:53:19.085Z,90.69
2022-09-23T05:54:19.497Z,90.69
2022-09-23T05:55:20.013Z,90.59
2022-09-23T05:56:19.061Z,90.59
2022-09-23T05:57:19.087Z,90.48
2022-09-23T05:58:19.041Z,90.48
2022-09-23T05:59:19.024Z,90.38
2022-09-23T06:00:19.007Z,90.28
2022-09-23T06:01:20.018Z,90.14
2022-09-23T06:02:19.045Z,90.24
2022-09-23T06:03:19.367Z,90.24
2022-09-23T06:04:20.428Z,90.14
2022-09-23T06:05:19.059Z,90.14
2022-09-23T06:06:20.405Z,90.03
2022-09-23T06:07:18.981Z,89.89
2022-09-23T06:08:18.959Z,89.89
2022-09-23T06:09:18.949Z,89.89
2022-09-23T06:10:19.175Z,89.89
2022-09-23T06:11:18.936Z,89.89
2022-09-23T06:12:18.990Z,89.69
2022-09-23T06:13:18.892Z,89.78
2022-09-23T06:14:18.924Z,89.75
2022-09-23T06:15:18.907Z,89.54
2022-09-23T06:16:20.346Z,89.23
2022-09-23T06:17:20.287Z,89.03
2022-09-23T06:18:18.819Z,89.03
2022-09-23T06:19:18.879Z,89.03
2022-09-23T06:20:18.788Z,88.98
2022-09-23T06:21:18.776Z,88.98
2022-09-23T06:22:18.804Z,88.88
2022-09-23T06:23:20.261Z,88.57
2022-09-23T06:24:23.042Z,88.06
2022-09-23T06:25:19.879Z,87.71
2022-09-23T06:26:18.742Z,87.82
2022-09-23T06:27:19.591Z,87.51
2022-09-23T06:28:18.895Z,87.30
2022-09-23T06:29:18.749Z,87.10
2022-09-23T06:30:18.705Z,86.65
2022-09-23T06:31:18.924Z,86.75
2022-09-23T06:32:18.684Z,86.55
2022-09-23T06:33:28.842Z,86.34
2022-09-23T06:34:20.012Z,85.99
2022-09-23T06:35:27.009Z,85.69
2022-09-23T06:36:36.939Z,85.07
2022-09-23T06:37:20.930Z,84.66
2022-09-23T06:38:18.775Z,84.11
2022-09-23T06:39:18.634Z,83.70
2022-09-23T06:40:18.950Z,83.36
2022-09-23T06:41:18.881Z,83.15
2022-09-23T06:42:18.849Z,82.84
2022-09-23T06:43:18.554Z,82.43
2022-09-23T06:44:18.794Z,82.29
2022-09-23T06:45:18.522Z,82.09
2022-09-23T06:46:18.757Z,81.88
2022-09-23T06:47:18.475Z,81.44
2022-09-23T06:48:18.755Z,80.83
2022-09-23T06:49:18.827Z,80.52
2022-09-23T06:50:18.448Z,80.11
2022-09-23T06:51:18.445Z,79.66
2022-09-23T06:52:18.430Z,79.46
2022-09-23T06:53:18.416Z,79.25
2022-09-23T06:54:18.403Z,79.02
2022-09-23T06:55:18.937Z,78.91
2022-09-23T06:56:19.920Z,78.61
2022-09-23T06:57:18.368Z,78.16
2022-09-23T06:58:19.333Z,77.75
2022-09-23T06:59:18.348Z,77.65
2022-09-23T07:00:18.369Z,77.55
2022-09-23T07:01:18.372Z,77.25
2022-09-23T07:02:18.460Z,76.80
2022-09-23T07:03:18.331Z,76.59
2022-09-23T07:04:18.523Z,76.19
2022-09-23T07:05:18.485Z,75.78
2022-09-23T07:06:18.322Z,75.57
2022-09-23T07:07:19.768Z,75.57
2022-09-23T07:08:18.313Z,75.44
2022-09-23T07:09:19.707Z,75.74
2022-09-23T07:10:18.247Z,75.44
2022-09-23T07:11:18.447Z,75.44
2022-09-23T07:12:19.206Z,75.34
2022-09-23T07:13:18.191Z,74.99
2022-09-23T07:14:18.242Z,74.90
2022-09-23T07:15:18.195Z,74.90
2022-09-23T07:16:18.274Z,74.49
2022-09-23T07:17:19.117Z,74.58
2022-09-23T07:18:18.151Z,74.28
2022-09-23T07:19:18.132Z,73.84
2022-09-23T07:20:18.131Z,73.74
2022-09-23T07:21:18.126Z,73.64
2022-09-23T07:22:18.167Z,73.23
2022-09-23T07:23:18.131Z,72.92
2022-09-23T07:24:18.108Z,72.82
2022-09-23T07:25:18.273Z,72.82
2022-09-23T07:26:18.050Z,72.78
2022-09-23T07:27:18.054Z,72.69
2022-09-23T07:28:18.083Z,72.58
2022-09-23T07:29:18.015Z,72.69
2022-09-23T07:30:25.152Z,72.58
2022-09-23T07:31:34.151Z,72.48
2022-09-23T07:32:20.486Z,72.34
2022-09-23T07:33:30.754Z,72.34
2022-09-23T07:34:19.411Z,72.34
2022-09-23T07:35:17.957Z,72.45
2022-09-23T07:36:17.977Z,72.14
2022-09-23T07:37:17.952Z,71.73
2022-09-23T07:38:17.917Z,71.53
2022-09-23T07:39:17.909Z,71.43
2022-09-23T07:40:17.977Z,71.43
2022-09-23T07:41:17.891Z,71.19
2022-09-23T07:42:17.890Z,70.99
2022-09-23T07:43:17.870Z,70.89
2022-09-23T07:44:17.851Z,70.58
2022-09-23T07:45:17.851Z,70.48
2022-09-23T07:46:17.883Z,70.48
2022-09-23T07:47:17.864Z,70.68
2022-09-23T07:48:17.807Z,70.89
2022-09-23T07:49:17.791Z,70.99
2022-09-23T07:50:17.820Z,70.68
2022-09-23T07:51:17.783Z,70.68
2022-09-23T07:52:17.751Z,70.96
2022-09-23T07:53:17.792Z,71.16
2022-09-23T07:54:17.774Z,71.16
2022-09-23T07:55:20.994Z,71.06
2022-09-23T07:56:17.718Z,71.16
2022-09-23T07:57:17.717Z,71.06
2022-09-23T07:58:17.754Z,71.06
2022-09-23T07:59:17.713Z,70.65
2022-09-23T08:00:17.705Z,70.45
2022-09-23T08:01:17.732Z,70.35
2022-09-23T08:02:17.695Z,70.42
2022-09-23T08:03:17.685Z,70.11
2022-09-23T08:04:17.636Z,70.01
2022-09-23T08:05:17.644Z,69.70
2022-09-23T08:06:17.594Z,69.40
2022-09-23T08:07:17.590Z,69.50
2022-09-23T08:08:17.584Z,69.81
2022-09-23T08:09:17.571Z,70.72
2022-09-23T08:10:17.593Z,69.60
2022-09-23T08:11:17.555Z,69.30
2022-09-23T08:12:17.526Z,68.89
2022-09-23T08:13:17.836Z,68.69
2022-09-23T08:14:17.499Z,68.59
2022-09-23T08:15:17.528Z,68.59
2022-09-23T08:16:17.568Z,68.79
2022-09-23T08:17:17.503Z,68.89
2022-09-23T08:18:17.468Z,68.89
2022-09-23T08:19:17.461Z,68.89
2022-09-23T08:20:17.476Z,68.89
2022-09-23T08:21:17.430Z,68.99
2022-09-23T08:22:17.460Z,68.99
2022-09-23T08:23:17.410Z,69.06
2022-09-23T08:24:17.390Z,69.17
2022-09-23T08:25:20.336Z,69.17
2022-09-23T08:26:21.603Z,69.17
2022-09-23T08:27:18.405Z,69.26
2022-09-23T08:28:17.362Z,69.26
2022-09-23T08:29:17.359Z,69.06
2022-09-23T08:30:17.332Z,69.23
2022-09-23T08:31:17.513Z,69.13
2022-09-23T08:32:17.324Z,69.23
2022-09-23T08:33:22.500Z,69.13
2022-09-23T08:34:18.286Z,69.23
2022-09-23T08:35:17.294Z,69.13
2022-09-23T08:36:17.264Z,69.23
2022-09-23T08:37:17.292Z,68.93
2022-09-23T08:38:17.243Z,68.83
2022-09-23T08:39:17.246Z,68.83
2022-09-23T08:40:17.261Z,68.93
2022-09-23T08:41:17.257Z,68.73
2022-09-23T08:42:17.206Z,68.83
2022-09-23T08:43:17.186Z,68.59
2022-09-23T08:44:17.207Z,68.52
2022-09-23T08:45:17.166Z,68.70
2022-09-23T08:46:17.222Z,68.90
2022-09-23T08:47:17.200Z,68.49
2022-09-23T08:48:17.426Z,68.49
2022-09-23T08:49:17.142Z,68.59
2022-09-23T08:50:17.314Z,68.59
2022-09-23T08:51:17.112Z,68.70
2022-09-23T08:52:17.390Z,68.49
2022-09-23T08:53:17.099Z,68.39
2022-09-23T08:54:17.087Z,68.59
2022-09-23T08:55:17.081Z,68.29
2022-09-23T08:56:17.239Z,68.49
2022-09-23T08:57:17.840Z,68.49
2022-09-23T08:58:25.599Z,68.59
2022-09-23T08:59:18.050Z,68.59
2022-09-23T09:00:17.023Z,68.70
2022-09-23T09:01:17.052Z,68.59
2022-09-23T09:02:17.031Z,69.20
2022-09-23T09:03:16.984Z,69.30
2022-09-23T09:04:16.980Z,69.20
2022-09-23T09:05:16.960Z,69.30
2022-09-23T09:06:16.943Z,69.10
2022-09-23T09:07:35.857Z,69.00
2022-09-23T09:08:17.957Z,68.49
2022-09-23T09:09:16.961Z,68.39
2022-09-23T09:10:16.912Z,68.15
2022-09-23T09:11:16.969Z,68.26
2022-09-23T09:12:17.114Z,68.66
2022-09-23T09:13:16.920Z,68.76
2022-09-23T09:14:16.851Z,68.76
2022-09-23T09:15:16.944Z,68.83
2022-09-23T09:16:18.791Z,68.52
2022-09-23T09:17:17.816Z,68.02
2022-09-23T09:18:17.022Z,67.92
2022-09-23T09:19:16.789Z,67.51
2022-09-23T09:20:17.054Z,67.31
2022-09-23T09:21:16.766Z,67.31
2022-09-23T09:22:16.760Z,67.31
2022-09-23T09:23:16.841Z,66.97
2022-09-23T09:24:17.528Z,66.97
2022-09-23T09:25:16.797Z,66.97
2022-09-23T09:26:16.731Z,66.88
2022-09-23T09:27:16.937Z,66.84
2022-09-23T09:28:16.713Z,66.64
2022-09-23T09:29:34.371Z,66.13
2022-09-23T09:30:17.804Z,65.62
2022-09-23T09:31:16.858Z,65.62
2022-09-23T09:32:17.139Z,65.42
2022-09-23T09:33:16.740Z,65.39
2022-09-23T09:34:16.989Z,65.59
2022-09-23T09:35:16.699Z,65.39
2022-09-23T09:36:17.099Z,65.39
2022-09-23T09:37:16.612Z,65.19
2022-09-23T09:38:16.691Z,64.89
2022-09-23T09:39:16.592Z,64.79
2022-09-23T09:40:16.634Z,64.07
2022-09-23T09:41:16.568Z,63.78
2022-09-23T09:42:16.537Z,63.84
2022-09-23T09:43:16.610Z,63.84
2022-09-23T09:44:16.506Z,64.15
2022-09-23T09:45:16.517Z,63.95
2022-09-23T09:46:16.525Z,63.84
2022-09-23T09:47:16.495Z,63.64
2022-09-23T09:48:16.480Z,63.84
2022-09-23T09:49:17.356Z,63.75
2022-09-23T09:50:16.441Z,63.84
2022-09-23T09:51:16.460Z,63.84
2022-09-23T09:52:16.470Z,64.25
2022-09-23T09:53:16.365Z,63.95
2022-09-23T09:54:16.345Z,63.81
2022-09-23T09:55:16.343Z,63.81
2022-09-23T09:56:16.328Z,63.41
2022-09-23T09:57:16.438Z,63.41
2022-09-23T09:58:16.422Z,63.41
2022-09-23T09:59:16.291Z,63.38
2022-09-23T10:00:16.277Z,63.68
2022-09-23T10:01:16.298Z,63.28
2022-09-23T10:02:16.909Z,62.67
2022-09-23T10:03:16.257Z,62.47
2022-09-23T10:04:16.321Z,61.87
2022-09-23T10:05:16.497Z,61.53
2022-09-23T10:06:16.664Z,61.53
2022-09-23T10:07:16.212Z,61.63
2022-09-23T10:08:16.793Z,61.13
2022-09-23T10:09:16.920Z,61.23
2022-09-23T10:10:31.955Z,61.43
2022-09-23T10:11:17.410Z,61.73
2022-09-23T10:12:16.915Z,61.83
2022-09-23T10:13:16.166Z,61.63
2022-09-23T10:14:16.163Z,61.13
2022-09-23T10:15:16.264Z,61.20
2022-09-23T10:16:16.207Z,61.10
2022-09-23T10:17:16.100Z,61.10
2022-09-23T10:18:16.092Z,60.89
2022-09-23T10:19:16.097Z,60.39
2022-09-23T10:20:16.226Z,60.09
2022-09-23T10:21:16.076Z,60.60
2022-09-23T10:22:16.036Z,60.49
2022-09-23T10:23:16.053Z,60.49
2022-09-23T10:24:16.016Z,60.60
2022-09-23T10:25:16.013Z,60.82
2022-09-23T10:26:16.028Z,60.72
2022-09-23T10:27:16.042Z,61.13
2022-09-23T10:28:15.968Z,61.73
2022-09-23T10:29:15.950Z,62.11
2022-09-23T10:30:16.235Z,61.91
2022-09-23T10:31:16.015Z,61.13
2022-09-23T10:32:15.930Z,60.82
2022-09-23T10:33:15.983Z,61.03
2022-09-23T10:34:15.912Z,60.93
2022-09-23T10:35:15.898Z,60.80
2022-09-23T10:36:16.202Z,61.20
2022-09-23T10:37:15.930Z,61.40
2022-09-23T10:38:15.877Z,61.71
2022-09-23T10:39:15.915Z,61.51
2022-09-23T10:40:15.950Z,61.98
2022-09-23T10:41:16.145Z,60.57
2022-09-23T10:42:15.867Z,60.57
2022-09-23T10:43:16.081Z,60.57
2022-09-23T10:44:16.249Z,60.66
2022-09-23T10:45:16.760Z,60.36
2022-09-23T10:46:15.845Z,60.66
2022-09-23T10:47:15.771Z,60.87
2022-09-23T10:48:15.823Z,60.36
2022-09-23T10:49:15.904Z,59.76
2022-09-23T10:50:15.798Z,60.26
2022-09-23T10:51:15.726Z,60.33
2022-09-23T10:52:15.885Z,59.83
2022-09-23T10:53:15.703Z,59.83
2022-09-23T10:54:15.715Z,59.63
2022-09-23T10:55:16.010Z,59.42
2022-09-23T10:56:15.678Z,59.22
2022-09-23T10:57:16.119Z,59.02
2022-09-23T10:58:15.651Z,58.82
2022-09-23T10:59:15.677Z,59.53
2022-09-23T11:00:15.945Z,59.33
2022-09-23T11:01:15.686Z,59.22
2022-09-23T11:02:15.634Z,59.42
2022-09-23T11:03:15.613Z,59.09
2022-09-23T11:04:16.126Z,59.20
2022-09-23T11:05:15.594Z,59.09
2022-09-23T11:06:15.555Z,59.00
2022-09-23T11:07:16.305Z,59.00
2022-09-23T11:08:17.000Z,58.80
2022-09-23T11:09:16.068Z,58.97
2022-09-23T11:10:28.884Z,58.47
2022-09-23T11:11:16.817Z,58.47
2022-09-23T11:12:15.580Z,58.36
2022-09-23T11:13:15.937Z,58.87
2022-09-23T11:14:15.473Z,58.67
2022-09-23T11:15:15.552Z,58.47
2022-09-23T11:16:15.502Z,58.67
2022-09-23T11:17:15.803Z,58.64
2022-09-23T11:18:15.530Z,58.94
2022-09-23T11:19:15.639Z,59.04
2022-09-23T11:20:20.695Z,58.94
2022-09-23T11:21:15.395Z,58.44
2022-09-23T11:22:15.406Z,58.01
2022-09-23T11:23:15.378Z,58.01
2022-09-23T11:24:15.571Z,58.21
2022-09-23T11:25:15.421Z,57.81
2022-09-23T11:26:15.351Z,57.90
2022-09-23T11:27:15.402Z,57.98
2022-09-23T11:28:15.532Z,58.68
2022-09-23T11:29:15.324Z,58.68
2022-09-23T11:30:15.305Z,58.98
2022-09-23T11:31:15.617Z,58.65
2022-09-23T11:32:15.286Z,57.75
2022-09-23T11:33:15.387Z,56.95
2022-09-23T11:34:15.879Z,56.95
2022-09-23T11:35:15.255Z,56.95
2022-09-23T11:36:15.404Z,57.22
2022-09-23T11:37:15.230Z,57.62
2022-09-23T11:38:15.743Z,57.52
2022-09-23T11:39:15.300Z,56.99
2022-09-23T11:40:15.588Z,56.29
2022-09-23T11:41:15.336Z,56.49
2022-09-23T11:42:15.711Z,56.59
2022-09-23T11:43:15.622Z,55.58
2022-09-23T11:44:15.651Z,55.58
2022-09-23T11:45:15.973Z,55.48
2022-09-23T11:46:15.292Z,56.09
2022-09-23T11:47:15.164Z,54.30
2022-09-23T11:48:16.105Z,54.91
2022-09-23T11:49:15.795Z,55.21
2022-09-23T11:50:15.142Z,54.50
2022-09-23T11:51:15.153Z,54.71
2022-09-23T11:52:15.096Z,55.31
2022-09-23T11:53:15.053Z,55.51
2022-09-23T11:54:18.480Z,55.81
2022-09-23T11:55:22.344Z,55.61
2022-09-23T11:56:27.198Z,55.61
2022-09-23T11:57:16.015Z,55.61
2022-09-23T11:58:24.248Z,56.01
2022-09-23T11:59:17.110Z,55.31
2022-09-23T12:00:15.075Z,55.00
2022-09-23T12:01:15.006Z,54.20
2022-09-23T12:02:19.915Z,54.23
2022-09-23T12:03:16.063Z,54.63
2022-09-23T12:04:20.464Z,55.43
2022-09-23T12:05:16.391Z,55.63
2022-09-23T12:06:14.921Z,55.83
2022-09-23T12:07:14.930Z,55.83
2022-09-23T12:08:14.891Z,56.31
2022-09-23T12:09:14.890Z,55.61
2022-09-23T12:10:14.894Z,55.61
2022-09-23T12:11:14.884Z,55.91
2022-09-23T12:12:14.854Z,55.81
2022-09-23T12:13:14.833Z,55.81
2022-09-23T12:14:14.819Z,56.01
2022-09-23T12:15:14.861Z,56.21
2022-09-23T12:16:14.875Z,55.99
2022-09-23T12:17:14.796Z,55.28
2022-09-23T12:18:17.448Z,53.57
2022-09-23T12:19:14.777Z,53.70
2022-09-23T12:20:14.750Z,53.77
2022-09-23T12:21:32.732Z,53.97
2022-09-23T12:22:15.775Z,54.08
2022-09-23T12:23:14.737Z,54.08
2022-09-23T12:24:19.141Z,53.97
2022-09-23T12:25:14.707Z,53.37
2022-09-23T12:26:14.717Z,53.57
2022-09-23T12:27:14.682Z,54.08
2022-09-23T12:28:14.761Z,53.97
2022-09-23T12:29:14.796Z,54.08
2022-09-23T12:30:14.639Z,54.50
2022-09-23T12:31:14.700Z,54.80
2022-09-23T12:32:14.818Z,54.91
2022-09-23T12:33:14.717Z,55.79
2022-09-23T12:34:14.858Z,55.71
2022-09-23T12:35:14.696Z,55.71
2022-09-23T12:36:14.575Z,55.81
2022-09-23T12:37:14.859Z,55.71
2022-09-23T12:38:15.516Z,55.31
2022-09-23T12:39:14.586Z,54.91
2022-09-23T12:40:14.574Z,55.21
2022-09-23T12:41:14.546Z,55.41
2022-09-23T12:42:14.693Z,55.81
2022-09-23T12:43:15.989Z,55.21
2022-09-23T12:44:15.353Z,55.61
2022-09-23T12:45:14.493Z,55.41
2022-09-23T12:46:15.971Z,55.81
2022-09-23T12:47:14.523Z,56.01
2022-09-23T12:48:14.820Z,55.81
2022-09-23T12:49:14.671Z,55.81
2022-09-23T12:50:18.409Z,55.81
2022-09-23T12:51:15.421Z,55.74
2022-09-23T12:52:14.481Z,55.63